KNYG

Quantico MCAF / Turner Field Airport

Quantico, Virginia, USA
METAR KNYG 190156Z 00000KT 10SM CLR M02/M08 A3013 RMK A02 SLP203 T10171078
Observed Flight Rules
Jan-19 @ 01:56 UTC (5 hours ago) Visual Flight Rules
Wind Visibility Clouds
Calm 10 miles
  • Clear skies
Temperatures Readings
Current -2°C / 28°F
Dewpoint -8°C / 18°F
Humidity 64%
Altimeter 30.13" Hg
Pressure 1020.3 hPa
Elevation 4
METAR KNYG 190156Z 00000KT 10SM CLR M02/M08 A3013 RMK A02 SLP203 T10171078
Observed Flight Rules
Jan-19 @ 01:56 UTC
(5 hours ago)
VFR
Wind Visibility
Calm 10 miles
Clouds
  • Clear skies
Temperature Dewpoint
-2°C / 28°F -8°C / 18°F
Humidity Altimeter Pressure
64% 30.13" Hg 1020.3 hPa